Time;durP1;ratioP1;P1;durP2;ratioP2;P2;SDS_P1;SDS_P2;PMS_P1;PMS_P2;Temp;Humidity;BMP_temperature;BMP_pressure;BME280_temperature;BME280_humidity;BME280_pressure;Samples;Min_cycle;Max_cycle;Signal;HPM_P1;HPM_P2
2022/08/22 07:18:51;;;;;;;;;;;15.70;99.90;;;;;;5069545;28;20497;-43
2022/08/22 07:21:17;;;;;;;7.55;2.63;;;15.70;99.90;;;;;;5053050;28;20303;-37
2022/08/22 07:23:48;;;;;;;12.18;2.78;;;15.90;99.90;;;;;;5047563;28;20053;-48
2022/08/22 07:26:17;;;;;;;8.48;2.90;;;16.00;99.90;;;;;;5044371;28;20060;-42
2022/08/22 07:28:44;;;;;;;11.10;2.63;;;16.30;99.90;;;;;;5047778;28;20403;-46
2022/08/22 07:31:23;;;;;;;10.25;2.75;;;16.40;99.90;;;;;;5044442;28;20453;-41
2022/08/22 07:33:50;;;;;;;11.07;2.80;;;16.70;99.90;;;;;;5045790;28;20037;-43
2022/08/22 07:36:17;;;;;;;9.07;2.28;;;16.90;99.90;;;;;;5047103;28;20037;-41
2022/08/22 07:38:43;;;;;;;11.98;2.88;;;17.00;99.90;;;;;;5048196;28;20045;-41
2022/08/22 07:41:10;;;;;;;7.00;2.05;;;17.20;99.90;;;;;;5051550;28;20434;-47
2022/08/22 07:43:37;;;;;;;9.88;2.40;;;17.30;99.90;;;;;;5047794;28;20071;-40
2022/08/22 07:46:04;;;;;;;8.43;2.25;;;17.50;99.90;;;;;;5044406;28;20381;-46
2022/08/22 07:48:32;;;;;;;9.05;2.53;;;17.60;99.90;;;;;;5045344;28;20048;-46
2022/08/22 07:50:59;;;;;;;6.60;2.40;;;17.70;99.80;;;;;;5046279;28;20041;-38
2022/08/22 07:53:26;;;;;;;10.45;2.65;;;17.80;99.50;;;;;;5047775;28;20431;-45
2022/08/22 07:55:54;;;;;;;7.20;2.30;;;17.90;99.40;;;;;;5049610;28;20040;-44
2022/08/22 07:58:20;;;;;;;11.80;2.50;;;18.00;99.10;;;;;;5047710;28;20049;-45
2022/08/22 08:00:47;;;;;;;9.77;2.70;;;18.10;98.50;;;;;;5047436;28;20098;-45
2022/08/22 08:03:14;;;;;;;7.78;2.33;;;18.10;98.50;;;;;;5045977;28;20045;-44
2022/08/22 08:05:41;;;;;;;10.95;2.65;;;18.20;98.30;;;;;;5046995;28;20041;-40
2022/08/22 08:08:08;;;;;;;7.13;2.50;;;18.30;98.00;;;;;;5045018;28;20037;-41
2022/08/22 08:10:41;;;;;;;11.68;2.17;;;18.40;97.50;;;;;;5047028;28;20037;-46
2022/08/22 08:13:08;;;;;;;10.27;2.67;;;18.40;97.70;;;;;;5047446;28;20048;-42
2022/08/22 08:15:35;;;;;;;8.30;2.15;;;18.50;97.50;;;;;;5047510;28;20488;-48
2022/08/22 08:18:02;;;;;;;9.30;2.28;;;18.60;97.40;;;;;;5045059;28;20057;-42
2022/08/22 08:20:29;;;;;;;11.77;2.92;;;18.70;96.50;;;;;;5051445;28;20103;-44
2022/08/22 08:22:56;;;;;;;8.32;2.33;;;18.80;96.70;;;;;;5061605;28;20042;-42
2022/08/22 08:25:22;;;;;;;8.75;2.40;;;18.80;96.70;;;;;;5042775;28;20041;-46
2022/08/22 08:30:35;;;;;;;12.25;3.05;;;19.00;96.10;;;;;;5029711;28;20039;-39
2022/08/22 08:33:03;;;;;;;8.95;2.55;;;19.00;95.90;;;;;;5028171;28;20048;-42
2022/08/22 08:35:50;;;;;;;12.23;2.47;;;19.10;96.10;;;;;;5025179;28;20092;-46
2022/08/22 08:38:30;;;;;;;9.48;2.65;;;19.20;95.90;;;;;;5034992;28;20440;-38
2022/08/22 08:40:56;;;;;;;11.55;2.55;;;19.30;95.60;;;;;;5029994;28;20045;-46
2022/08/22 08:43:26;;;;;;;9.25;2.17;;;19.30;95.60;;;;;;5034137;28;20052;-38
2022/08/22 08:45:53;;;;;;;11.90;2.72;;;19.30;96.00;;;;;;5030347;28;20049;-44
2022/08/22 08:48:24;;;;;;;9.38;2.30;;;19.40;96.00;;;;;;5032882;28;20045;-41
2022/08/22 08:50:51;;;;;;;10.40;2.70;;;19.40;96.00;;;;;;5034756;28;20136;-40
2022/08/22 08:53:18;;;;;;;13.10;2.63;;;19.50;95.90;;;;;;5036274;28;20492;-44
2022/08/22 08:55:47;;;;;;;10.48;2.17;;;19.50;95.60;;;;;;5033788;28;20087;-46
2022/08/22 08:58:15;;;;;;;9.77;2.22;;;19.60;95.90;;;;;;5036516;28;20480;-37
2022/08/22 09:00:43;;;;;;;10.93;2.70;;;19.60;95.70;;;;;;5036496;28;20045;-40
2022/08/22 09:03:10;;;;;;;8.48;2.30;;;19.70;95.50;;;;;;5036480;28;20390;-38
2022/08/22 09:05:41;;;;;;;6.78;2.10;;;19.70;95.50;;;;;;5032479;28;20534;-41
2022/08/22 09:08:08;;;;;;;8.10;1.77;;;19.80;95.00;;;;;;5031521;28;20160;-41
2022/08/22 09:10:37;;;;;;;10.98;2.40;;;19.80;95.20;;;;;;5030682;28;20049;-41
2022/08/22 09:13:05;;;;;;;8.85;2.28;;;20.00;95.20;;;;;;5033603;28;20045;-43
2022/08/22 09:15:38;;;;;;;6.70;2.13;;;20.20;94.90;;;;;;5028243;28;20128;-46
2022/08/22 09:18:05;;;;;;;9.00;2.15;;;20.30;95.20;;;;;;5029623;28;20053;-44
2022/08/22 09:20:32;;;;;;;9.32;2.00;;;20.30;94.70;;;;;;5027764;28;20033;-44
2022/08/22 09:22:58;;;;;;;8.38;2.40;;;20.30;94.60;;;;;;5032462;28;20048;-44
2022/08/22 09:25:27;;;;;;;9.40;2.30;;;20.30;94.40;;;;;;5032792;28;20037;-45
2022/08/22 09:28:05;;;;;;;7.63;1.92;;;20.30;94.60;;;;;;5031324;28;20107;-44
2022/08/22 09:30:32;;;;;;;7.95;2.45;;;20.30;94.20;;;;;;5007030;28;20069;-41
2022/08/22 09:32:59;;;;;;;7.65;2.30;;;20.30;94.50;;;;;;5032410;28;20050;-46
2022/08/22 09:35:26;;;;;;;8.75;2.55;;;20.40;94.50;;;;;;5027710;28;20087;-48
2022/08/22 09:37:53;;;;;;;8.23;2.20;;;20.50;93.90;;;;;;5030461;28;20041;-40
2022/08/22 09:40:20;;;;;;;8.02;2.30;;;20.50;93.80;;;;;;5031099;28;20045;-42
2022/08/22 09:42:51;;;;;;;13.35;2.60;;;20.60;94.10;;;;;;5025026;28;20053;-45
2022/08/22 09:45:21;;;;;;;6.70;1.88;;;20.70;93.90;;;;;;5028084;28;20148;-44
2022/08/22 09:47:48;;;;;;;6.90;2.45;;;20.80;94.10;;;;;;5034056;28;20045;-44
2022/08/22 09:50:15;;;;;;;7.18;2.13;;;20.90;94.20;;;;;;5032142;28;20045;-42
2022/08/22 09:52:43;;;;;;;9.40;2.28;;;21.00;94.00;;;;;;5029259;28;20527;-43
2022/08/22 09:55:09;;;;;;;7.00;2.30;;;21.20;93.60;;;;;;5028342;28;20381;-39
2022/08/22 09:57:41;;;;;;;7.60;2.25;;;21.30;93.10;;;;;;5041459;28;20037;-46
2022/08/22 10:00:09;;;;;;;6.78;2.20;;;21.50;93.50;;;;;;5031493;28;20049;-43
2022/08/22 10:02:36;;;;;;;7.38;2.17;;;21.70;93.60;;;;;;5027635;28;20038;-40
2022/08/22 10:05:09;;;;;;;6.72;2.03;;;21.80;93.00;;;;;;5036571;28;20507;-42
2022/08/22 10:07:37;;;;;;;6.90;2.15;;;21.80;92.80;;;;;;5027211;28;20056;-45
2022/08/22 10:10:04;;;;;;;5.85;2.00;;;21.90;92.80;;;;;;5030102;28;20088;-42
2022/08/22 10:12:31;;;;;;;7.78;2.03;;;21.90;93.00;;;;;;5030804;28;20480;-44
2022/08/22 10:15:02;;;;;;;6.88;1.83;;;22.10;92.50;;;;;;5033794;28;20048;-41
2022/08/22 10:17:32;;;;;;;6.38;1.73;;;22.20;92.20;;;;;;5038728;28;20049;-40
2022/08/22 10:20:06;;;;;;;5.10;1.77;;;22.30;92.00;;;;;;5034693;28;20484;-41
2022/08/22 10:22:35;;;;;;;4.35;1.50;;;22.40;92.00;;;;;;5034702;28;20123;-42
2022/08/22 10:25:02;;;;;;;5.68;1.23;;;22.50;92.30;;;;;;5035390;28;20068;-42
2022/08/22 10:27:30;;;;;;;4.80;1.60;;;22.60;91.90;;;;;;5033449;28;20079;-40
2022/08/22 10:29:57;;;;;;;4.25;1.52;;;22.70;91.90;;;;;;5033383;28;20459;-45
2022/08/22 10:32:24;;;;;;;6.00;1.48;;;22.80;91.90;;;;;;5029587;28;20108;-41
2022/08/22 10:34:52;;;;;;;5.45;1.23;;;22.90;91.80;;;;;;5029471;28;20037;-47
2022/08/22 10:37:20;;;;;;;5.85;1.85;;;23.10;91.60;;;;;;5033084;28;20164;-44
2022/08/22 10:39:49;;;;;;;3.72;1.30;;;23.20;91.50;;;;;;5029145;28;20056;-47
2022/08/22 10:42:18;;;;;;;6.10;1.67;;;23.30;91.40;;;;;;5028979;28;20129;-43
2022/08/22 10:44:48;;;;;;;5.10;1.58;;;23.40;91.50;;;;;;5031125;28;20095;-43
2022/08/22 10:47:17;;;;;;;5.00;1.88;;;23.50;91.30;;;;;;5028198;28;20128;-43
2022/08/22 10:49:44;;;;;;;4.55;1.50;;;23.60;91.40;;;;;;5028884;28;20484;-44
2022/08/22 10:52:16;;;;;;;5.68;1.20;;;23.70;91.30;;;;;;5037221;28;20064;-44
2022/08/22 10:54:44;;;;;;;3.45;1.25;;;23.80;91.00;;;;;;5032114;28;20059;-43
2022/08/22 10:57:11;;;;;;;3.90;1.30;;;23.80;90.70;;;;;;5031425;28;20041;-43
2022/08/22 10:59:38;;;;;;;6.93;1.60;;;23.80;90.70;;;;;;5032021;28;20052;-41
2022/08/22 11:02:05;;;;;;;5.53;1.48;;;23.80;90.90;;;;;;5031654;28;20095;-43
2022/08/22 11:04:33;;;;;;;5.40;1.38;;;23.90;90.90;;;;;;5032729;28;20120;-43
2022/08/22 11:07:00;;;;;;;4.22;1.30;;;23.90;90.90;;;;;;5033371;28;20041;-45
2022/08/22 11:09:27;;;;;;;10.93;1.45;;;24.10;90.80;;;;;;5032718;28;20042;-41
2022/08/22 11:11:57;;;;;;;7.32;1.50;;;24.20;90.60;;;;;;5030433;28;20103;-44
2022/08/22 11:14:24;;;;;;;8.10;1.40;;;24.40;90.50;;;;;;5034036;28;20057;-40
2022/08/22 11:16:51;;;;;;;5.13;1.45;;;24.60;90.30;;;;;;5039267;28;20033;-48
2022/08/22 11:19:21;;;;;;;3.40;1.10;;;24.70;90.10;;;;;;5038313;28;20119;-45
2022/08/22 11:21:48;;;;;;;5.78;1.15;;;24.80;89.80;;;;;;5035409;28;20053;-46
2022/08/22 11:24:16;;;;;;;2.92;1.00;;;24.70;88.70;;;;;;5034624;28;20048;-43
2022/08/22 11:27:00;;;;;;;6.70;1.02;;;24.60;89.10;;;;;;5037509;28;20091;-43
2022/08/22 11:29:32;;;;;;;5.30;1.00;;;24.50;89.00;;;;;;5030604;28;20091;-53
2022/08/22 11:31:59;;;;;;;4.72;1.25;;;24.40;89.10;;;;;;5027038;28;20073;-46
2022/08/22 11:34:33;;;;;;;3.47;1.00;;;24.30;89.30;;;;;;5032687;28;20096;-41
2022/08/22 11:37:00;;;;;;;3.53;1.08;;;24.00;89.60;;;;;;5038423;28;20037;-44
2022/08/22 11:39:26;;;;;;;5.10;1.25;;;23.80;90.20;;;;;;5038613;28;20040;-45
2022/08/22 11:41:53;;;;;;;4.82;1.30;;;23.70;90.50;;;;;;5034709;28;20064;-49
2022/08/22 11:44:20;;;;;;;3.97;1.10;;;23.70;90.50;;;;;;5032459;28;20120;-40
2022/08/22 11:46:51;;;;;;;6.65;1.23;;;23.70;90.60;;;;;;5033342;28;20064;-44
2022/08/22 11:49:20;;;;;;;6.07;1.42;;;23.80;90.50;;;;;;5031232;28;20080;-45
2022/08/22 11:51:54;;;;;;;4.00;1.30;;;23.70;90.60;;;;;;5032640;28;20396;-40
2022/08/22 11:54:20;;;;;;;3.30;1.20;;;23.60;90.60;;;;;;5032097;28;20037;-43
2022/08/22 11:56:56;;;;;;;5.38;1.05;;;23.50;90.70;;;;;;5032565;28;20045;-48
2022/08/22 11:59:23;;;;;;;5.40;1.33;;;23.40;91.00;;;;;;5028455;28;20506;-44
2022/08/22 12:01:51;;;;;;;7.57;1.48;;;23.20;91.30;;;;;;5025065;28;20051;-44
2022/08/22 12:04:18;;;;;;;4.47;1.50;;;23.00;91.60;;;;;;5033729;28;20132;-43
2022/08/22 12:06:45;;;;;;;4.55;1.20;;;22.90;91.90;;;;;;5035412;28;20037;-43
2022/08/22 12:09:12;;;;;;;3.90;1.30;;;22.90;92.10;;;;;;5036090;28;20053;-42
2022/08/22 12:11:39;;;;;;;6.35;2.22;;;22.80;92.20;;;;;;5036068;28;20046;-44
2022/08/22 12:14:07;;;;;;;6.70;1.92;;;22.90;92.30;;;;;;5035257;28;20583;-44
2022/08/22 12:16:34;;;;;;;9.68;1.60;;;23.00;92.20;;;;;;5034467;28;20069;-49
2022/08/22 12:19:00;;;;;;;5.53;1.85;;;23.10;92.30;;;;;;5032106;28;20459;-46
2022/08/22 12:21:28;;;;;;;7.43;1.60;;;23.20;91.90;;;;;;5035664;28;20492;-47
2022/08/22 12:23:55;;;;;;;5.03;1.48;;;23.30;91.80;;;;;;5032305;28;20049;-44
2022/08/22 12:26:22;;;;;;;4.38;1.65;;;23.30;91.70;;;;;;5030073;28;20116;-44
2022/08/22 12:28:49;;;;;;;9.05;2.20;;;23.40;91.80;;;;;;5037440;28;20043;-41
2022/08/22 12:31:17;;;;;;;6.55;1.70;;;23.40;91.40;;;;;;5035397;28;20041;-41
2022/08/22 12:33:43;;;;;;;5.80;1.40;;;23.40;91.40;;;;;;5034385;28;20081;-49
2022/08/22 12:36:13;;;;;;;6.65;1.35;;;23.40;91.40;;;;;;5032759;28;20103;-45
2022/08/22 12:38:44;;;;;;;6.88;1.73;;;23.40;91.30;;;;;;5035316;28;20153;-44
2022/08/22 12:41:10;;;;;;;10.32;2.38;;;23.40;91.20;;;;;;5036773;28;20099;-43
2022/08/22 12:43:37;;;;;;;5.50;1.83;;;23.30;91.30;;;;;;5035412;28;20034;-44
2022/08/22 12:46:08;;;;;;;5.75;1.58;;;23.40;91.30;;;;;;5034886;28;20040;-47
2022/08/22 12:48:38;;;;;;;8.25;1.42;;;23.40;91.30;;;;;;5026615;28;20053;-40
2022/08/22 12:51:05;;;;;;;5.40;1.58;;;23.40;91.20;;;;;;5028384;28;20041;-51
2022/08/22 12:53:43;;;;;;;4.35;1.45;;;23.50;91.40;;;;;;5035322;28;20068;-40
2022/08/22 12:56:10;;;;;;;4.38;1.77;;;23.60;91.40;;;;;;5030145;28;20052;-41
2022/08/22 12:58:38;;;;;;;3.05;1.20;;;23.70;91.10;;;;;;5033074;28;20041;-49
2022/08/22 13:01:05;;;;;;;4.93;1.17;;;23.80;91.20;;;;;;5034759;28;20045;-44
2022/08/22 13:03:32;;;;;;;3.97;1.10;;;24.00;91.00;;;;;;5030481;28;20045;-39
2022/08/22 13:05:59;;;;;;;3.92;1.30;;;24.10;90.90;;;;;;5028012;28;20128;-45
2022/08/22 13:08:36;;;;;;;5.00;1.10;;;24.40;90.40;;;;;;5031127;28;20522;-44
2022/08/22 13:11:03;;;;;;;7.03;1.35;;;24.60;90.10;;;;;;5036194;28;20038;-44
2022/08/22 13:13:42;;;;;;;3.22;1.20;;;24.80;89.90;;;;;;5035105;28;20392;-46
2022/08/22 13:16:21;;;;;;;3.60;1.35;;;24.90;89.30;;;;;;5036065;28;20567;-49
2022/08/22 13:18:49;;;;;;;2.97;1.05;;;25.00;88.60;;;;;;5034733;28;20381;-40
2022/08/22 13:21:19;;;;;;;7.50;1.27;;;25.10;88.60;;;;;;5034457;28;20099;-42
2022/08/22 13:23:47;;;;;;;3.42;1.25;;;25.10;88.70;;;;;;5035012;28;20065;-45
2022/08/22 13:26:16;;;;;;;5.38;1.10;;;25.00;88.30;;;;;;5038133;28;20041;-44
2022/08/22 13:29:03;;;;;;;4.65;1.10;;;24.90;88.30;;;;;;5034890;28;20054;-43
2022/08/22 13:31:50;;;;;;;3.78;1.20;;;24.70;88.80;;;;;;5034653;28;20038;-42
2022/08/22 13:34:17;;;;;;;5.53;1.20;;;24.40;89.60;;;;;;5034645;28;20509;-42
2022/08/22 13:36:49;;;;;;;7.82;1.27;;;24.30;90.00;;;;;;5034615;28;20038;-44
2022/08/22 13:39:17;;;;;;;3.63;1.27;;;24.20;90.20;;;;;;5034699;28;20091;-44
2022/08/22 13:41:45;;;;;;;5.20;1.55;;;24.20;90.10;;;;;;5034509;28;20128;-43
2022/08/22 13:44:13;;;;;;;6.57;1.08;;;24.10;90.20;;;;;;5034340;28;20037;-40
2022/08/22 13:46:41;;;;;;;3.65;0.90;;;24.00;90.30;;;;;;5036947;28;20042;-42
2022/08/22 13:49:27;;;;;;;5.10;1.70;;;24.00;90.40;;;;;;5034258;28;20124;-48
2022/08/22 13:51:54;;;;;;;5.10;1.40;;;24.00;90.30;;;;;;5033162;28;20053;-41
2022/08/22 13:54:21;;;;;;;3.42;1.23;;;24.10;90.20;;;;;;5031592;28;20038;-51
2022/08/22 13:56:49;;;;;;;5.85;1.20;;;24.10;90.10;;;;;;5038398;28;20072;-44
2022/08/22 13:59:16;;;;;;;4.45;1.30;;;24.10;90.20;;;;;;5033957;28;20073;-50
2022/08/22 14:02:03;;;;;;;3.40;1.15;;;24.10;90.30;;;;;;5033870;28;20481;-47
2022/08/22 14:04:30;;;;;;;3.92;1.08;;;24.00;90.40;;;;;;5036328;28;20043;-42
2022/08/22 14:07:04;;;;;;;5.18;1.67;;;24.10;90.50;;;;;;5036023;28;20108;-42
2022/08/22 14:09:31;;;;;;;5.22;1.40;;;24.00;90.60;;;;;;5033698;28;20439;-50
2022/08/22 14:11:58;;;;;;;7.65;1.80;;;23.90;90.70;;;;;;5033791;28;20048;-46
2022/08/22 14:14:25;;;;;;;5.25;1.70;;;23.90;90.90;;;;;;5033712;28;20045;-43
2022/08/22 14:16:52;;;;;;;4.32;1.63;;;24.00;90.90;;;;;;5033685;28;20072;-42
2022/08/22 14:19:19;;;;;;;6.50;2.22;;;24.00;90.80;;;;;;5036034;28;20052;-43
2022/08/22 14:21:47;;;;;;;6.47;1.80;;;24.10;90.70;;;;;;5035653;28;20044;-41
2022/08/22 14:24:14;;;;;;;6.05;1.60;;;24.10;90.70;;;;;;5033636;28;20044;-41
2022/08/22 14:26:44;;;;;;;4.50;1.90;;;24.10;90.70;;;;;;5032831;28;20049;-43
2022/08/22 14:29:13;;;;;;;5.05;1.65;;;24.10;90.60;;;;;;5032161;28;20083;-46
2022/08/22 14:31:40;;;;;;;4.13;1.60;;;24.00;90.70;;;;;;5033476;28;20484;-43
2022/08/22 14:34:09;;;;;;;8.25;1.88;;;23.90;90.80;;;;;;5032214;28;20144;-44
2022/08/22 14:36:36;;;;;;;8.07;1.80;;;23.90;90.80;;;;;;5033503;28;20045;-46
2022/08/22 14:39:03;;;;;;;8.52;1.90;;;23.80;91.00;;;;;;5033392;28;20455;-43
2022/08/22 14:41:29;;;;;;;6.78;1.75;;;23.80;91.10;;;;;;5036851;28;20508;-42
2022/08/22 14:44:16;;;;;;;6.72;2.05;;;23.80;91.10;;;;;;5033471;28;20041;-41
2022/08/22 14:46:43;;;;;;;5.80;1.80;;;23.80;91.10;;;;;;5033282;28;20499;-40
2022/08/22 14:49:10;;;;;;;8.30;2.10;;;23.80;91.10;;;;;;5032009;28;20045;-44
2022/08/22 14:51:38;;;;;;;7.47;1.50;;;23.80;91.20;;;;;;5033160;28;20079;-47
2022/08/22 14:54:06;;;;;;;6.32;1.75;;;23.90;91.10;;;;;;5033309;28;20046;-45
2022/08/22 14:56:39;;;;;;;6.43;1.83;;;24.00;91.00;;;;;;5032081;28;20045;-45
2022/08/22 14:59:07;;;;;;;8.82;1.80;;;24.20;90.90;;;;;;5032946;28;20052;-44
2022/08/22 15:01:33;;;;;;;6.38;1.83;;;24.40;90.70;;;;;;5033161;28;20464;-46
2022/08/22 15:04:02;;;;;;;6.00;1.83;;;24.60;90.60;;;;;;5033059;28;20053;-44
2022/08/22 15:06:29;;;;;;;5.97;1.60;;;24.80;90.40;;;;;;5033066;28;20492;-46
2022/08/22 15:08:58;;;;;;;4.68;1.70;;;24.90;90.00;;;;;;5033033;28;20427;-43
2022/08/22 15:11:27;;;;;;;5.88;1.50;;;25.00;89.40;;;;;;5032803;28;20080;-42
2022/08/22 15:13:57;;;;;;;4.55;1.27;;;25.00;88.60;;;;;;5033223;28;20396;-51
2022/08/22 15:16:25;;;;;;;3.83;1.23;;;25.00;88.90;;;;;;5033101;28;20415;-41
2022/08/22 15:18:52;;;;;;;3.65;1.48;;;24.90;88.70;;;;;;5031843;28;20128;-44
2022/08/22 15:21:19;;;;;;;6.90;1.30;;;24.90;89.00;;;;;;5032798;28;20046;-45
2022/08/22 15:23:50;;;;;;;8.35;1.40;;;24.80;88.90;;;;;;5033134;28;20091;-44
2022/08/22 15:26:16;;;;;;;3.92;1.52;;;24.70;88.80;;;;;;5033130;28;20503;-45
2022/08/22 15:28:43;;;;;;;6.75;1.60;;;24.60;89.20;;;;;;5032703;28;20044;-40
2022/08/22 15:31:18;;;;;;;5.00;1.58;;;24.60;89.50;;;;;;5031434;28;20476;-50
2022/08/22 15:33:46;;;;;;;3.95;1.30;;;24.60;89.50;;;;;;5032830;28;20041;-53
2022/08/22 15:36:13;;;;;;;3.60;1.50;;;24.40;89.40;;;;;;5032758;28;20038;-48
2022/08/22 15:38:41;;;;;;;5.60;1.50;;;24.30;89.80;;;;;;5032599;28;20088;-42
2022/08/22 15:41:13;;;;;;;5.65;1.48;;;24.30;90.00;;;;;;5037474;28;20034;-50
2022/08/22 15:43:40;;;;;;;7.28;1.65;;;24.40;90.00;;;;;;5035274;28;20137;-42
2022/08/22 15:46:07;;;;;;;3.15;1.00;;;24.30;90.00;;;;;;5036632;28;20044;-43
2022/08/22 15:48:43;;;;;;;3.88;1.20;;;24.40;89.70;;;;;;5036656;28;20412;-42
2022/08/22 15:51:18;;;;;;;5.32;1.15;;;24.40;89.20;;;;;;5029790;28;20045;-41
2022/08/22 15:53:47;;;;;;;6.57;1.60;;;24.40;89.30;;;;;;5030394;28;20060;-49
2022/08/22 15:56:16;;;;;;;4.93;1.50;;;24.30;89.30;;;;;;5030298;28;20040;-43
2022/08/22 15:58:43;;;;;;;6.25;1.63;;;24.40;89.20;;;;;;5036341;28;20044;-43
2022/08/22 16:01:17;;;;;;;4.93;1.27;;;24.40;89.40;;;;;;5036221;28;20076;-42
2022/08/22 16:03:47;;;;;;;9.30;1.45;;;24.50;89.20;;;;;;5036208;28;20076;-45
2022/08/22 16:06:14;;;;;;;5.32;1.50;;;24.60;89.30;;;;;;5036440;28;20045;-50
2022/08/22 16:08:43;;;;;;;8.18;1.70;;;24.70;89.00;;;;;;5039402;28;20514;-42
2022/08/22 16:11:10;;;;;;;8.00;1.70;;;24.80;88.90;;;;;;5035901;28;20048;-43
2022/08/22 16:13:36;;;;;;;4.95;1.25;;;24.80;88.70;;;;;;5036168;28;20041;-47
2022/08/22 16:16:04;;;;;;;4.65;1.33;;;24.90;88.60;;;;;;5035991;28;20068;-46
2022/08/22 16:18:30;;;;;;;6.00;1.58;;;24.90;88.30;;;;;;5041803;28;20523;-45
2022/08/22 16:20:57;;;;;;;4.65;1.45;;;24.90;88.40;;;;;;5035737;28;20038;-43
2022/08/22 16:23:24;;;;;;;5.65;1.83;;;24.80;88.60;;;;;;5035806;28;20044;-41
2022/08/22 16:25:51;;;;;;;6.30;1.50;;;24.80;89.20;;;;;;5040390;28;20041;-44
2022/08/22 16:28:18;;;;;;;6.60;1.00;;;24.70;88.50;;;;;;5035707;28;20061;-41
2022/08/22 16:30:57;;;;;;;5.78;1.20;;;24.60;88.50;;;;;;5033251;28;20396;-42
2022/08/22 16:33:24;;;;;;;6.15;1.60;;;24.50;88.90;;;;;;5035710;28;20041;-43
2022/08/22 16:35:50;;;;;;;5.85;1.20;;;24.50;89.00;;;;;;5036323;28;20048;-44
2022/08/22 16:38:17;;;;;;;7.93;1.48;;;24.60;88.70;;;;;;5035409;28;20045;-43
2022/08/22 16:40:44;;;;;;;4.03;0.93;;;24.60;88.60;;;;;;5035540;28;20045;-43
2022/08/22 16:43:11;;;;;;;3.40;1.00;;;24.60;88.60;;;;;;5039844;28;20029;-46
2022/08/22 16:45:38;;;;;;;4.00;1.08;;;24.60;88.60;;;;;;5035544;28;20046;-46
2022/08/22 16:48:06;;;;;;;4.13;1.00;;;24.60;88.70;;;;;;5034909;28;20496;-41
2022/08/22 16:50:33;;;;;;;5.65;1.60;;;24.60;88.90;;;;;;5039936;28;20045;-43
2022/08/22 16:52:59;;;;;;;5.78;1.45;;;24.50;88.80;;;;;;5035657;28;20041;-41
2022/08/22 16:55:26;;;;;;;4.78;2.28;;;24.40;89.10;;;;;;5035573;28;20073;-43
2022/08/22 16:57:53;;;;;;;4.85;1.20;;;24.30;89.50;;;;;;5035330;28;20136;-41
2022/08/22 17:00:31;;;;;;;5.68;1.35;;;24.30;89.80;;;;;;5035261;28;20069;-48
2022/08/22 17:02:58;;;;;;;7.45;1.35;;;24.20;90.00;;;;;;5035261;28;20038;-44
2022/08/22 17:05:25;;;;;;;9.90;1.73;;;24.10;90.20;;;;;;5035208;28;20112;-48
2022/08/22 17:07:56;;;;;;;6.00;1.23;;;24.10;90.30;;;;;;5036705;28;20149;-42
2022/08/22 17:10:22;;;;;;;8.90;1.30;;;24.00;90.50;;;;;;5034844;28;20120;-45
2022/08/22 17:12:49;;;;;;;3.33;1.10;;;23.90;90.50;;;;;;5035150;28;20068;-43
2022/08/22 17:15:16;;;;;;;4.55;1.05;;;23.90;90.70;;;;;;5035038;28;20045;-49
2022/08/22 17:17:43;;;;;;;5.82;1.25;;;23.90;91.80;;;;;;5034752;28;20041;-42
2022/08/22 17:20:10;;;;;;;5.53;1.30;;;23.80;91.60;;;;;;5035007;28;20400;-41
2022/08/22 17:22:37;;;;;;;4.60;1.25;;;23.80;91.50;;;;;;5034873;28;20042;-44
2022/08/22 17:25:04;;;;;;;4.30;1.20;;;23.80;91.30;;;;;;5034848;28;20507;-42
2022/08/22 17:27:31;;;;;;;4.43;1.35;;;23.70;91.20;;;;;;5035355;28;20416;-48
2022/08/22 17:29:58;;;;;;;5.07;1.10;;;23.70;91.30;;;;;;5034813;28;20432;-45
2022/08/22 17:32:25;;;;;;;3.67;1.08;;;23.70;91.30;;;;;;5034543;28;20048;-42
2022/08/22 17:34:51;;;;;;;5.05;1.10;;;23.70;91.30;;;;;;5034753;28;20049;-41
2022/08/22 17:37:20;;;;;;;5.18;1.50;;;23.70;91.40;;;;;;5031137;28;20076;-43
2022/08/22 17:39:47;;;;;;;5.97;1.50;;;23.60;91.40;;;;;;5034395;28;20052;-39
2022/08/22 17:42:19;;;;;;;5.65;1.40;;;23.70;91.50;;;;;;5029315;28;20456;-44
2022/08/22 17:44:46;;;;;;;8.20;2.05;;;23.70;91.50;;;;;;5029334;28;20057;-47
2022/08/22 17:47:14;;;;;;;12.50;2.97;;;23.60;91.80;;;;;;5031785;28;20448;-42
2022/08/22 17:49:41;;;;;;;9.88;4.13;;;23.60;92.00;;;;;;5027196;28;20038;-45
2022/08/22 17:52:11;;;;;;;5.40;1.60;;;23.60;92.30;;;;;;5030797;28;20433;-41
2022/08/22 17:54:39;;;;;;;6.22;1.38;;;23.50;91.70;;;;;;5033045;28;20035;-48
2022/08/22 17:57:06;;;;;;;4.00;1.10;;;23.50;91.80;;;;;;5032087;28;20485;-44
2022/08/22 17:59:32;;;;;;;6.57;1.40;;;23.40;91.80;;;;;;5031486;28;20473;-45
2022/08/22 18:01:59;;;;;;;4.75;1.33;;;23.40;91.90;;;;;;5028011;28;20492;-45
2022/08/22 18:04:26;;;;;;;4.60;1.30;;;23.40;92.00;;;;;;5031461;28;20041;-49
2022/08/22 18:06:53;;;;;;;4.18;1.10;;;23.40;92.10;;;;;;5031269;28;20030;-43
2022/08/22 18:09:22;;;;;;;3.75;1.10;;;23.30;92.10;;;;;;5030221;28;20347;-40
2022/08/22 18:11:48;;;;;;;4.70;1.55;;;23.30;92.10;;;;;;5028082;28;20046;-43
2022/08/22 18:14:15;;;;;;;4.25;1.30;;;23.20;92.20;;;;;;5029171;28;20120;-39
2022/08/22 18:16:42;;;;;;;5.85;1.88;;;23.20;92.20;;;;;;5027753;28;20030;-40
2022/08/22 18:19:09;;;;;;;5.55;1.40;;;23.20;92.70;;;;;;5029837;28;20049;-44
2022/08/22 18:21:36;;;;;;;3.65;1.20;;;23.10;92.50;;;;;;5030088;28;20072;-43
2022/08/22 18:24:02;;;;;;;5.93;1.77;;;23.10;92.60;;;;;;5029526;28;20065;-45
2022/08/22 18:26:29;;;;;;;3.97;1.00;;;23.00;93.10;;;;;;5032221;28;20033;-45
2022/08/22 18:28:56;;;;;;;4.82;1.02;;;23.00;92.90;;;;;;5031099;28;20056;-47
2022/08/22 18:31:23;;;;;;;3.63;1.20;;;22.90;93.00;;;;;;5029769;28;20125;-45
2022/08/22 18:33:50;;;;;;;5.95;1.30;;;22.90;93.10;;;;;;5037372;28;20049;-43
2022/08/22 18:36:18;;;;;;;4.60;1.13;;;22.80;93.20;;;;;;5028901;28;20045;-47
2022/08/22 18:38:46;;;;;;;4.07;1.20;;;22.80;93.50;;;;;;5025552;28;20038;-42
2022/08/22 18:41:12;;;;;;;3.50;1.00;;;22.80;93.60;;;;;;5032113;28;20041;-43
2022/08/22 18:43:40;;;;;;;3.10;1.13;;;22.70;93.60;;;;;;5032095;28;20052;-46
2022/08/22 18:46:07;;;;;;;4.05;0.85;;;22.70;93.70;;;;;;5027347;28;20042;-45
2022/08/22 18:48:34;;;;;;;4.55;0.93;;;22.60;93.90;;;;;;5030083;28;20118;-41
2022/08/22 18:51:01;;;;;;;4.60;1.23;;;22.50;94.60;;;;;;5025851;28;20373;-48
2022/08/22 18:53:27;;;;;;;3.83;1.38;;;22.40;95.00;;;;;;5028774;28;20041;-46
2022/08/22 18:55:55;;;;;;;5.45;1.27;;;22.30;95.60;;;;;;5012263;28;20046;-45
2022/08/22 18:58:21;;;;;;;7.80;1.20;;;22.10;95.80;;;;;;5032989;28;20492;-42
2022/08/22 19:00:48;;;;;;;5.47;1.50;;;22.10;96.00;;;;;;5032514;28;20038;-45
2022/08/22 19:03:15;;;;;;;6.32;1.23;;;22.00;96.20;;;;;;5031659;28;20034;-41
2022/08/22 19:05:42;;;;;;;4.25;1.45;;;22.00;96.90;;;;;;5030666;28;20038;-46
2022/08/22 19:08:09;;;;;;;3.95;1.60;;;21.90;97.50;;;;;;5030926;28;20046;-48
2022/08/22 19:10:36;;;;;;;2.60;1.20;;;21.80;97.80;;;;;;5034521;28;20045;-46
2022/08/22 19:13:02;;;;;;;3.70;1.30;;;21.70;97.70;;;;;;5033196;28;20383;-44
2022/08/22 19:15:29;;;;;;;2.78;1.00;;;21.70;98.30;;;;;;5030858;28;20068;-44
2022/08/22 19:17:56;;;;;;;4.80;1.35;;;21.60;98.70;;;;;;5032511;28;20059;-43
2022/08/22 19:23:10;;;;;;;3.95;1.38;;;21.40;99.00;;;;;;5028760;28;20124;-41
2022/08/22 19:25:37;;;;;;;3.40;1.30;;;21.40;99.10;;;;;;5029386;28;20041;-46
2022/08/22 19:28:04;;;;;;;4.18;1.10;;;21.30;99.50;;;;;;5032618;28;20041;-42
2022/08/22 19:30:30;;;;;;;6.95;1.13;;;21.20;99.70;;;;;;5030039;28;20038;-52
2022/08/22 19:32:57;;;;;;;2.88;1.00;;;21.20;99.70;;;;;;5026148;28;20037;-48
2022/08/22 19:35:25;;;;;;;3.25;1.08;;;21.20;99.90;;;;;;5036102;28;20106;-45
2022/08/22 19:37:52;;;;;;;2.47;1.13;;;21.10;99.90;;;;;;5031146;28;20120;-47
2022/08/22 19:40:19;;;;;;;2.33;1.00;;;21.10;99.90;;;;;;5031862;28;20132;-43
2022/08/22 19:42:48;;;;;;;2.08;1.10;;;21.10;99.90;;;;;;5030744;28;20042;-47
2022/08/22 19:45:15;;;;;;;1.95;0.90;;;21.10;99.90;;;;;;5026993;28;20034;-47
2022/08/22 19:47:42;;;;;;;1.67;0.80;;;21.00;99.90;;;;;;5035287;28;20044;-46
2022/08/22 19:50:09;;;;;;;3.28;0.80;;;21.00;99.90;;;;;;5029471;28;20045;-44
2022/08/22 19:52:36;;;;;;;1.92;0.88;;;21.00;99.90;;;;;;5023658;28;20512;-38
2022/08/22 19:55:03;;;;;;;2.47;0.88;;;20.90;99.90;;;;;;5025026;28;20042;-40
2022/08/22 19:57:30;;;;;;;1.88;0.63;;;20.90;99.90;;;;;;5030018;28;20041;-49
2022/08/22 19:59:58;;;;;;;2.08;0.70;;;20.80;99.90;;;;;;5030003;28;20523;-40
2022/08/22 20:02:26;;;;;;;1.88;0.68;;;20.80;99.90;;;;;;5029957;28;20393;-43
2022/08/22 20:04:53;;;;;;;1.40;0.60;;;20.80;99.90;;;;;;5032386;28;20038;-50
2022/08/22 20:07:21;;;;;;;2.15;0.90;;;20.80;99.90;;;;;;5032359;28;20052;-43
2022/08/22 20:09:48;;;;;;;1.38;0.70;;;20.80;99.90;;;;;;5028389;28;20558;-50
2022/08/22 20:12:15;;;;;;;1.27;0.57;;;20.70;99.90;;;;;;5029966;28;20512;-44
2022/08/22 20:14:41;;;;;;;3.05;0.73;;;20.70;99.90;;;;;;5032710;28;20033;-46